createdAt,value
2023-05-08T00:00:47.496Z,12.59
2023-05-08T00:03:14.270Z,12.58
2023-05-08T00:05:43.875Z,12.52
2023-05-08T00:08:10.568Z,12.50
2023-05-08T00:10:37.253Z,12.53
2023-05-08T00:13:03.916Z,12.53
2023-05-08T00:15:30.530Z,12.50
2023-05-08T00:17:57.567Z,12.49
2023-05-08T00:20:24.205Z,12.46
2023-05-08T00:22:50.788Z,12.47
2023-05-08T00:25:17.444Z,12.47
2023-05-08T00:27:44.060Z,12.42
2023-05-08T00:30:11.283Z,12.40
2023-05-08T00:32:38.245Z,12.35
2023-05-08T00:35:05.195Z,12.34
2023-05-08T00:37:31.696Z,12.24
2023-05-08T00:39:58.291Z,12.21
2023-05-08T00:42:24.846Z,12.23
2023-05-08T00:44:52.323Z,12.18
2023-05-08T00:47:22.155Z,12.15
2023-05-08T00:49:49.246Z,12.14
2023-05-08T00:52:16.784Z,12.10
2023-05-08T00:54:44.331Z,12.09
2023-05-08T00:57:11.181Z,12.09
2023-05-08T00:59:41.493Z,12.07
2023-05-08T01:02:08.811Z,12.07
2023-05-08T01:04:37.045Z,12.05
2023-05-08T01:07:03.680Z,12.01
2023-05-08T01:09:30.248Z,11.96
2023-05-08T01:11:56.925Z,11.91
2023-05-08T01:14:39.806Z,11.90
2023-05-08T01:17:23.655Z,11.91
2023-05-08T01:20:19.267Z,11.82
2023-05-08T01:23:30.587Z,11.74
2023-05-08T01:26:22.468Z,11.68
2023-05-08T01:29:08.467Z,11.66
2023-05-08T01:31:54.282Z,11.67
2023-05-08T01:34:26.782Z,11.66
2023-05-08T01:37:01.055Z,11.65
2023-05-08T01:39:47.322Z,11.65
2023-05-08T01:42:33.998Z,11.59
2023-05-08T01:45:01.713Z,11.59
2023-05-08T01:47:33.133Z,11.55
2023-05-08T01:50:16.818Z,11.54
2023-05-08T01:52:51.459Z,11.57
2023-05-08T01:55:24.545Z,11.57
2023-05-08T01:57:54.220Z,11.54
2023-05-08T02:00:23.818Z,11.55
2023-05-08T02:02:52.509Z,11.53
2023-05-08T02:05:21.665Z,11.44
2023-05-08T02:07:49.155Z,11.44
2023-05-08T02:10:16.632Z,11.42
2023-05-08T02:12:44.591Z,11.41
2023-05-08T02:15:14.378Z,11.40
2023-05-08T02:17:43.574Z,11.38
2023-05-08T02:20:14.860Z,11.33
2023-05-08T02:22:44.666Z,11.32
2023-05-08T02:25:14.528Z,11.35
2023-05-08T02:27:46.574Z,11.33
2023-05-08T02:30:16.255Z,11.33
2023-05-08T02:32:45.060Z,11.34
2023-05-08T02:35:19.668Z,11.33
2023-05-08T02:37:49.671Z,11.30
2023-05-08T02:40:18.627Z,11.32
2023-05-08T02:42:46.690Z,11.32
2023-05-08T02:45:14.115Z,11.29
2023-05-08T02:47:52.079Z,11.31
2023-05-08T02:50:24.316Z,11.32
2023-05-08T02:53:03.326Z,11.33
2023-05-08T02:55:42.831Z,11.32
2023-05-08T02:58:34.994Z,11.29
2023-05-08T03:01:11.546Z,11.26
2023-05-08T03:03:42.104Z,11.27
2023-05-08T03:06:13.752Z,11.28
2023-05-08T03:08:42.193Z,11.30
2023-05-08T03:11:14.545Z,11.29
2023-05-08T03:13:42.946Z,11.28
2023-05-08T03:16:20.604Z,11.27
2023-05-08T03:19:04.926Z,11.27
2023-05-08T03:21:32.347Z,11.20
2023-05-08T03:24:02.245Z,11.18
2023-05-08T03:26:29.428Z,11.17
2023-05-08T03:28:57.639Z,11.17
2023-05-08T03:31:25.739Z,11.14
2023-05-08T03:33:54.397Z,11.12
2023-05-08T03:36:22.527Z,11.11
2023-05-08T03:38:49.361Z,11.11
2023-05-08T03:41:15.972Z,11.10
2023-05-08T03:43:43.277Z,11.05
2023-05-08T03:46:12.520Z,11.00
2023-05-08T03:48:41.323Z,10.96
2023-05-08T03:51:08.376Z,10.98
2023-05-08T03:53:34.987Z,10.96
2023-05-08T03:56:02.321Z,10.96
2023-05-08T03:58:37.293Z,10.94
2023-05-08T04:01:16.004Z,10.93
2023-05-08T04:03:53.660Z,10.90
2023-05-08T04:06:48.518Z,10.90
2023-05-08T04:09:34.943Z,10.88
2023-05-08T04:12:22.100Z,10.87
2023-05-08T04:14:55.681Z,10.87
2023-05-08T04:17:41.198Z,10.84
2023-05-08T04:20:12.171Z,10.84
2023-05-08T04:22:40.563Z,10.88
2023-05-08T04:25:09.121Z,10.89
2023-05-08T04:27:38.110Z,10.88
2023-05-08T04:30:05.512Z,10.90
2023-05-08T04:32:33.687Z,10.92
2023-05-08T04:35:00.851Z,10.95
2023-05-08T04:37:31.823Z,10.94
2023-05-08T04:39:59.223Z,10.96
2023-05-08T04:42:26.405Z,11.00
2023-05-08T04:44:54.038Z,11.00
2023-05-08T04:47:21.319Z,11.04
2023-05-08T04:49:47.935Z,11.10
2023-05-08T04:52:14.553Z,11.14
2023-05-08T04:54:41.307Z,11.13
2023-05-08T04:57:08.303Z,11.11
2023-05-08T04:59:34.874Z,11.10
2023-05-08T05:02:06.132Z,11.13
2023-05-08T05:04:32.758Z,11.20
2023-05-08T05:06:59.417Z,11.28
2023-05-08T05:09:26.033Z,11.33
2023-05-08T05:11:52.567Z,11.40
2023-05-08T05:14:19.220Z,11.51
2023-05-08T05:16:45.967Z,11.65
2023-05-08T05:19:12.918Z,11.77
2023-05-08T05:21:39.650Z,11.88
2023-05-08T05:24:06.619Z,12.00
2023-05-08T05:26:34.785Z,12.05
2023-05-08T05:29:02.332Z,12.04
2023-05-08T05:31:29.935Z,12.05
2023-05-08T05:33:56.624Z,12.06
2023-05-08T05:36:25.206Z,12.16
2023-05-08T05:38:51.744Z,12.22
2023-05-08T05:41:18.296Z,12.31
2023-05-08T05:43:44.857Z,12.38
2023-05-08T05:46:13.492Z,12.46
2023-05-08T05:48:40.227Z,12.53
2023-05-08T05:51:06.888Z,12.55
2023-05-08T05:53:33.453Z,12.65
2023-05-08T05:56:00.132Z,12.77
2023-05-08T05:58:28.460Z,12.90
2023-05-08T06:00:55.115Z,13.01
2023-05-08T06:03:21.685Z,13.13
2023-05-08T06:05:48.337Z,13.28
2023-05-08T06:08:17.871Z,13.44
2023-05-08T06:10:44.502Z,13.56
2023-05-08T06:13:11.368Z,13.66
2023-05-08T06:15:37.921Z,13.76
2023-05-08T06:18:04.945Z,13.85
2023-05-08T06:20:31.464Z,14.04
2023-05-08T06:22:58.011Z,14.18
2023-05-08T06:25:24.744Z,14.27
2023-05-08T06:27:51.552Z,14.40
2023-05-08T06:30:18.115Z,14.48
2023-05-08T06:32:44.720Z,14.46
2023-05-08T06:35:12.389Z,14.45
2023-05-08T06:37:41.985Z,14.50
2023-05-08T06:40:12.024Z,14.57
2023-05-08T06:42:44.113Z,14.65
2023-05-08T06:45:11.317Z,14.68
2023-05-08T06:47:38.605Z,14.71
2023-05-08T06:50:05.803Z,14.81
2023-05-08T06:52:32.803Z,14.96
2023-05-08T06:54:59.304Z,15.11
2023-05-08T06:57:27.216Z,15.28
2023-05-08T06:59:54.246Z,15.45
2023-05-08T07:02:20.787Z,15.59
2023-05-08T07:04:48.193Z,15.65
2023-05-08T07:07:15.327Z,15.79
2023-05-08T07:09:42.038Z,16.01
2023-05-08T07:12:08.978Z,15.97
2023-05-08T07:14:35.510Z,16.00
2023-05-08T07:17:06.905Z,15.98
2023-05-08T07:19:36.440Z,16.07
2023-05-08T07:22:03.278Z,16.27
2023-05-08T07:24:29.931Z,16.26
2023-05-08T07:26:56.623Z,16.14
2023-05-08T07:29:23.100Z,16.07
2023-05-08T07:31:50.910Z,15.99
2023-05-08T07:34:17.880Z,15.89
2023-05-08T07:36:45.151Z,15.90
2023-05-08T07:39:11.619Z,15.95
2023-05-08T07:41:40.986Z,15.99
2023-05-08T07:44:08.063Z,16.02
2023-05-08T07:46:34.929Z,16.08
2023-05-08T07:49:01.727Z,16.14
2023-05-08T07:51:28.931Z,16.15
2023-05-08T07:53:55.724Z,16.11
2023-05-08T07:56:25.177Z,16.26
2023-05-08T07:58:51.780Z,16.43
2023-05-08T08:01:18.496Z,16.51
2023-05-08T08:03:46.181Z,16.55
2023-05-08T08:06:13.332Z,16.62
2023-05-08T08:08:41.307Z,16.69
2023-05-08T08:11:07.925Z,16.75
2023-05-08T08:13:34.624Z,16.81
2023-05-08T08:16:04.988Z,16.82
2023-05-08T08:18:35.724Z,16.75
2023-05-08T08:21:06.324Z,16.81
2023-05-08T08:23:33.241Z,16.84
2023-05-08T08:25:59.880Z,16.84
2023-05-08T08:28:26.645Z,16.86
2023-05-08T08:30:53.328Z,16.89
2023-05-08T08:33:19.918Z,16.92
2023-05-08T08:35:46.591Z,16.96
2023-05-08T08:38:13.358Z,17.05
2023-05-08T08:40:46.580Z,17.13
2023-05-08T08:43:13.341Z,17.22
2023-05-08T08:45:39.971Z,17.35
2023-05-08T08:48:11.763Z,17.45
2023-05-08T08:50:43.058Z,17.61
2023-05-08T08:53:24.607Z,17.75
2023-05-08T08:55:55.743Z,17.85
2023-05-08T08:58:31.403Z,17.88
2023-05-08T09:01:00.563Z,18.00
2023-05-08T09:03:27.892Z,18.13
2023-05-08T09:05:55.296Z,18.15
2023-05-08T09:08:21.911Z,18.25
2023-05-08T09:10:48.569Z,18.34
2023-05-08T09:13:16.620Z,18.43
2023-05-08T09:15:43.945Z,18.63
2023-05-08T09:18:10.464Z,18.72
2023-05-08T09:20:37.327Z,18.67
2023-05-08T09:23:04.205Z,18.77
2023-05-08T09:25:44.266Z,18.89
2023-05-08T09:28:24.319Z,19.04
2023-05-08T09:30:51.837Z,19.13
2023-05-08T09:33:18.441Z,19.20
2023-05-08T09:35:44.887Z,19.09
2023-05-08T09:38:38.685Z,19.11
2023-05-08T09:41:12.137Z,19.17
2023-05-08T09:43:39.090Z,19.45
2023-05-08T09:46:26.672Z,19.85
2023-05-08T09:48:55.353Z,19.89
2023-05-08T09:51:23.414Z,19.87
2023-05-08T09:53:57.366Z,20.04
2023-05-08T09:56:53.393Z,20.27
2023-05-08T09:59:24.165Z,20.25
2023-05-08T10:01:50.964Z,20.11
2023-05-08T10:04:17.547Z,20.11
2023-05-08T10:06:44.344Z,20.29
2023-05-08T10:09:13.315Z,20.37
2023-05-08T10:11:41.526Z,20.48
2023-05-08T10:14:08.757Z,20.45
2023-05-08T10:16:49.089Z,20.46
2023-05-08T10:19:18.191Z,20.44
2023-05-08T10:21:53.182Z,20.20
2023-05-08T10:24:25.765Z,20.34
2023-05-08T10:27:06.977Z,20.28
2023-05-08T10:29:43.015Z,20.22
2023-05-08T10:32:10.547Z,20.18
2023-05-08T10:34:40.754Z,20.24
2023-05-08T10:37:11.462Z,20.24
2023-05-08T10:39:38.746Z,20.26
2023-05-08T10:42:05.251Z,20.35
2023-05-08T10:44:32.537Z,20.53
2023-05-08T10:47:11.828Z,20.80
2023-05-08T10:49:38.233Z,21.00
2023-05-08T10:52:24.557Z,21.15
2023-05-08T10:54:53.906Z,21.27
2023-05-08T10:57:21.527Z,21.43
2023-05-08T10:59:48.036Z,21.53
2023-05-08T11:02:15.530Z,21.40
2023-05-08T11:04:43.923Z,21.31
2023-05-08T11:07:11.513Z,21.26
2023-05-08T11:09:41.033Z,21.22
2023-05-08T11:12:16.507Z,21.20
2023-05-08T11:14:45.836Z,21.12
2023-05-08T11:17:12.370Z,21.02
2023-05-08T11:19:38.988Z,20.94
2023-05-08T11:22:24.205Z,20.95
2023-05-08T11:24:54.881Z,21.05
2023-05-08T11:27:50.814Z,21.03
2023-05-08T11:30:25.590Z,20.94
2023-05-08T11:33:04.605Z,21.09
2023-05-08T11:36:01.558Z,21.27
2023-05-08T11:38:40.210Z,21.37
2023-05-08T11:41:10.381Z,21.49
2023-05-08T11:44:09.665Z,21.80
2023-05-08T11:46:48.348Z,21.80
2023-05-08T11:49:22.687Z,21.85
2023-05-08T11:51:57.848Z,21.74
2023-05-08T11:54:25.798Z,21.81
2023-05-08T11:56:57.008Z,21.71
2023-05-08T11:59:23.413Z,21.64
2023-05-08T12:04:21.228Z,21.39
2023-05-08T12:06:48.268Z,21.26
2023-05-08T12:09:17.432Z,21.43
2023-05-08T12:11:45.379Z,21.60
2023-05-08T12:14:13.860Z,21.74
2023-05-08T12:16:40.891Z,21.77
2023-05-08T12:19:12.357Z,21.82
2023-05-08T12:21:39.749Z,21.98
2023-05-08T12:24:18.749Z,22.25
2023-05-08T12:26:46.400Z,22.51
2023-05-08T12:29:12.851Z,22.73
2023-05-08T12:31:42.336Z,22.86
2023-05-08T12:34:10.027Z,22.74
2023-05-08T12:36:37.162Z,22.60
2023-05-08T12:39:15.198Z,22.42
2023-05-08T12:41:46.265Z,22.55
2023-05-08T12:44:38.982Z,22.98
2023-05-08T12:47:06.545Z,23.11
2023-05-08T12:49:33.019Z,22.96
2023-05-08T12:52:04.504Z,22.96
2023-05-08T12:54:33.781Z,23.14
2023-05-08T12:57:00.675Z,23.43
2023-05-08T12:59:33.576Z,23.72
2023-05-08T13:02:00.213Z,23.56
2023-05-08T13:04:27.204Z,23.44
2023-05-08T13:06:55.762Z,23.29
2023-05-08T13:09:23.370Z,23.10
2023-05-08T13:11:50.015Z,23.13
2023-05-08T13:14:16.664Z,23.12
2023-05-08T13:16:47.843Z,23.14
2023-05-08T13:19:16.008Z,22.95
2023-05-08T13:21:44.695Z,22.94
2023-05-08T13:24:11.081Z,22.88
2023-05-08T13:26:37.537Z,22.85
2023-05-08T13:29:03.919Z,22.94
2023-05-08T13:31:30.698Z,23.10
2023-05-08T13:33:57.395Z,23.03
2023-05-08T13:36:24.470Z,22.94
2023-05-08T13:38:57.087Z,23.00
2023-05-08T13:41:23.473Z,22.88
2023-05-08T13:43:49.818Z,22.78
2023-05-08T13:46:16.370Z,22.67
2023-05-08T13:48:43.044Z,22.61
2023-05-08T13:51:09.443Z,22.80
2023-05-08T13:53:36.078Z,23.02
2023-05-08T13:56:02.670Z,23.08
2023-05-08T13:58:29.370Z,22.90
2023-05-08T14:00:55.741Z,22.89
2023-05-08T14:03:22.398Z,23.01
2023-05-08T14:05:48.875Z,23.09
2023-05-08T14:08:15.323Z,23.21
2023-05-08T14:10:41.835Z,23.21
2023-05-08T14:13:08.312Z,23.04
2023-05-08T14:15:37.272Z,22.90
2023-05-08T14:18:04.646Z,22.88
2023-05-08T14:20:31.070Z,22.78
2023-05-08T14:23:00.051Z,22.69
2023-05-08T14:25:26.906Z,22.59
2023-05-08T14:27:53.508Z,22.55
2023-05-08T14:30:19.990Z,22.42
2023-05-08T14:32:46.643Z,22.30
2023-05-08T14:35:14.418Z,22.39
2023-05-08T14:37:41.152Z,22.45
2023-05-08T14:40:08.298Z,22.53
2023-05-08T14:42:34.832Z,22.62
2023-05-08T14:45:01.414Z,22.62
2023-05-08T14:47:28.076Z,22.73
2023-05-08T14:49:54.672Z,22.87
2023-05-08T14:52:21.139Z,23.01
2023-05-08T14:57:39.551Z,22.81
2023-05-08T15:00:06.768Z,22.65
2023-05-08T15:02:33.368Z,22.55
2023-05-08T15:04:59.833Z,22.51
2023-05-08T15:07:26.244Z,22.32
2023-05-08T15:09:53.145Z,22.29
2023-05-08T15:12:19.639Z,22.26
2023-05-08T15:14:46.463Z,22.25
2023-05-08T15:17:12.922Z,22.27
2023-05-08T15:19:42.453Z,22.19
2023-05-08T15:22:08.989Z,22.29
2023-05-08T15:24:35.423Z,22.35
2023-05-08T15:27:01.944Z,22.42
2023-05-08T15:29:28.407Z,22.41
2023-05-08T15:31:54.998Z,22.28
2023-05-08T15:34:23.290Z,22.32
2023-05-08T15:36:49.988Z,22.42
2023-05-08T15:39:16.470Z,22.48
2023-05-08T15:41:42.862Z,22.47
2023-05-08T15:44:09.289Z,22.53
2023-05-08T15:46:36.173Z,22.59
2023-05-08T15:49:03.153Z,22.58
2023-05-08T15:51:30.015Z,22.43
2023-05-08T15:53:56.585Z,22.42
2023-05-08T15:56:24.604Z,22.41
2023-05-08T15:58:51.855Z,22.38
2023-05-08T16:01:19.390Z,22.40
2023-05-08T16:03:46.681Z,22.41
2023-05-08T16:06:13.611Z,22.38
2023-05-08T16:08:40.051Z,22.36
2023-05-08T16:11:06.509Z,22.19
2023-05-08T16:13:32.885Z,22.09
2023-05-08T16:16:06.358Z,22.03
2023-05-08T16:18:32.855Z,21.97
2023-05-08T16:20:59.234Z,21.96
2023-05-08T16:23:25.825Z,21.99
2023-05-08T16:25:52.745Z,21.94
2023-05-08T16:28:19.117Z,21.87
2023-05-08T16:30:45.825Z,21.77
2023-05-08T16:33:12.626Z,21.65
2023-05-08T16:35:39.985Z,21.65
2023-05-08T16:38:06.480Z,21.61
2023-05-08T16:40:32.996Z,21.52
2023-05-08T16:42:59.423Z,21.52
2023-05-08T16:45:25.943Z,21.42
2023-05-08T16:47:52.436Z,21.42
2023-05-08T16:50:19.014Z,21.47
2023-05-08T16:52:45.744Z,21.50
2023-05-08T16:55:12.467Z,21.46
2023-05-08T16:57:39.409Z,21.42
2023-05-08T17:00:06.702Z,21.49
2023-05-08T17:02:33.271Z,21.56
2023-05-08T17:04:59.789Z,21.60
2023-05-08T17:07:26.357Z,21.60
2023-05-08T17:09:57.275Z,21.52
2023-05-08T17:12:24.605Z,21.49
2023-05-08T17:14:51.122Z,21.38
2023-05-08T17:17:17.604Z,21.31
2023-05-08T17:19:44.091Z,21.23
2023-05-08T17:22:11.402Z,21.30
2023-05-08T17:24:38.008Z,21.28
2023-05-08T17:27:08.051Z,21.21
2023-05-08T17:29:34.911Z,21.15
2023-05-08T17:32:01.581Z,21.10
2023-05-08T17:34:28.300Z,21.01
2023-05-08T17:36:55.359Z,20.88
2023-05-08T17:39:22.337Z,20.82
2023-05-08T17:41:50.071Z,20.78
2023-05-08T17:44:17.266Z,20.62
2023-05-08T17:46:45.255Z,20.55
2023-05-08T17:49:11.736Z,20.56
2023-05-08T17:51:39.425Z,20.54
2023-05-08T17:54:06.781Z,20.47
2023-05-08T17:56:33.392Z,20.41
2023-05-08T17:58:59.797Z,20.36
2023-05-08T18:01:26.429Z,20.23
2023-05-08T18:03:53.694Z,20.16
2023-05-08T18:06:20.698Z,20.09
2023-05-08T18:08:47.604Z,20.08
2023-05-08T18:11:24.710Z,19.97
2023-05-08T18:13:53.054Z,19.89
2023-05-08T18:16:23.624Z,19.87
2023-05-08T18:18:50.460Z,19.78
2023-05-08T18:21:16.861Z,19.71
2023-05-08T18:23:43.881Z,19.66
2023-05-08T18:26:17.197Z,19.63
2023-05-08T18:28:44.487Z,19.50
2023-05-08T18:31:11.967Z,19.45
2023-05-08T18:33:38.824Z,19.38
2023-05-08T18:36:06.931Z,19.33
2023-05-08T18:38:34.216Z,19.29
2023-05-08T18:41:05.077Z,19.21
2023-05-08T18:43:31.691Z,19.16
2023-05-08T18:46:00.361Z,19.15
2023-05-08T18:48:27.257Z,19.04
2023-05-08T18:50:55.851Z,18.97
2023-05-08T18:53:22.192Z,18.96
2023-05-08T18:55:48.521Z,18.95
2023-05-08T18:58:14.940Z,18.87
2023-05-08T19:00:41.414Z,18.84
2023-05-08T19:03:07.966Z,18.78
2023-05-08T19:05:34.378Z,18.69
2023-05-08T19:08:00.790Z,18.59
2023-05-08T19:10:27.292Z,18.51
2023-05-08T19:12:53.742Z,18.44
2023-05-08T19:15:20.226Z,18.38
2023-05-08T19:17:46.906Z,18.33
2023-05-08T19:20:13.707Z,18.20
2023-05-08T19:22:40.485Z,18.16
2023-05-08T19:25:07.174Z,18.20
2023-05-08T19:27:34.205Z,18.18
2023-05-08T19:30:00.894Z,18.11
2023-05-08T19:32:28.692Z,18.08
2023-05-08T19:34:57.343Z,17.93
2023-05-08T19:37:24.541Z,17.86
2023-05-08T19:39:51.012Z,17.69
2023-05-08T19:42:17.468Z,17.73
2023-05-08T19:44:43.833Z,17.63
2023-05-08T19:47:10.393Z,17.56
2023-05-08T19:49:36.888Z,17.59
2023-05-08T19:52:03.383Z,17.51
2023-05-08T19:54:30.299Z,17.33
2023-05-08T19:56:57.159Z,17.22
2023-05-08T19:59:23.748Z,17.18
2023-05-08T20:01:50.357Z,17.21
2023-05-08T20:04:19.640Z,17.16
2023-05-08T20:06:46.248Z,17.05
2023-05-08T20:09:15.734Z,16.90
2023-05-08T20:11:44.094Z,16.91
2023-05-08T20:14:10.548Z,16.90
2023-05-08T20:16:37.236Z,16.80
2023-05-08T20:19:05.674Z,16.76
2023-05-08T20:21:33.837Z,16.68
2023-05-08T20:24:00.958Z,16.57
2023-05-08T20:26:29.052Z,16.56
2023-05-08T20:28:56.499Z,16.64
2023-05-08T20:31:23.111Z,16.68
2023-05-08T20:33:49.875Z,16.68
2023-05-08T20:36:16.506Z,16.64
2023-05-08T20:38:42.982Z,16.56
2023-05-08T20:41:09.410Z,16.51
2023-05-08T20:43:35.906Z,16.50
2023-05-08T20:46:02.763Z,16.51
2023-05-08T20:48:29.295Z,16.51
2023-05-08T20:50:55.932Z,16.49
2023-05-08T20:53:22.300Z,16.43
2023-05-08T20:55:48.862Z,16.38
2023-05-08T20:58:15.508Z,16.34
2023-05-08T21:00:41.913Z,16.34
2023-05-08T21:03:08.336Z,16.26
2023-05-08T21:05:34.846Z,16.22
2023-05-08T21:08:03.366Z,16.19
2023-05-08T21:10:31.447Z,16.15
2023-05-08T21:12:58.018Z,16.08
2023-05-08T21:15:24.536Z,16.04
2023-05-08T21:17:51.050Z,16.04
2023-05-08T21:20:18.081Z,16.02
2023-05-08T21:22:46.253Z,15.93
2023-05-08T21:25:14.870Z,15.89
2023-05-08T21:27:44.864Z,15.84
2023-05-08T21:30:16.300Z,15.80
2023-05-08T21:32:44.033Z,15.78
2023-05-08T21:35:11.924Z,15.80
2023-05-08T21:37:42.176Z,15.82
2023-05-08T21:40:09.652Z,15.87
2023-05-08T21:42:36.225Z,15.87
2023-05-08T21:45:02.751Z,15.81
2023-05-08T21:47:29.355Z,15.76
2023-05-08T21:49:55.994Z,15.73
2023-05-08T21:52:23.193Z,15.79
2023-05-08T21:54:50.276Z,15.81
2023-05-08T21:57:16.895Z,15.78
2023-05-08T21:59:43.442Z,15.75
2023-05-08T22:02:10.052Z,15.70
2023-05-08T22:04:36.537Z,15.64
2023-05-08T22:07:03.133Z,15.61
2023-05-08T22:09:29.810Z,15.62
2023-05-08T22:11:56.245Z,15.65
2023-05-08T22:14:22.708Z,15.64
2023-05-08T22:16:49.868Z,15.60
2023-05-08T22:19:16.459Z,15.62
2023-05-08T22:21:43.120Z,15.60
2023-05-08T22:24:09.554Z,15.58
2023-05-08T22:26:36.042Z,15.60
2023-05-08T22:29:02.467Z,15.57
2023-05-08T22:31:28.938Z,15.54
2023-05-08T22:33:57.435Z,15.46
2023-05-08T22:36:24.189Z,15.41
2023-05-08T22:38:50.701Z,15.35
2023-05-08T22:41:17.167Z,15.38
2023-05-08T22:43:43.652Z,15.35
2023-05-08T22:46:10.579Z,15.29
2023-05-08T22:48:37.570Z,15.28
2023-05-08T22:51:04.454Z,15.28
2023-05-08T22:53:30.904Z,15.25
2023-05-08T22:55:57.404Z,15.22
2023-05-08T22:58:25.170Z,15.18
2023-05-08T23:00:51.983Z,15.17
2023-05-08T23:03:18.526Z,15.14
2023-05-08T23:05:45.016Z,15.14
2023-05-08T23:08:11.438Z,15.11
2023-05-08T23:10:37.877Z,15.08
2023-05-08T23:13:04.335Z,15.05
2023-05-08T23:15:30.864Z,15.02
2023-05-08T23:17:57.514Z,15.03
2023-05-08T23:20:24.196Z,14.99
2023-05-08T23:22:50.689Z,14.95
2023-05-08T23:25:17.277Z,14.94
2023-05-08T23:27:43.894Z,14.96
2023-05-08T23:30:13.261Z,14.91
2023-05-08T23:32:40.162Z,14.94
2023-05-08T23:35:07.252Z,14.93
2023-05-08T23:37:33.733Z,14.92
2023-05-08T23:40:00.210Z,14.92
2023-05-08T23:42:27.135Z,14.87
2023-05-08T23:44:53.774Z,14.84
2023-05-08T23:47:22.392Z,14.84
2023-05-08T23:49:48.782Z,14.83
2023-05-08T23:52:15.310Z,14.81
2023-05-08T23:54:41.734Z,14.80
2023-05-08T23:57:09.369Z,14.77
2023-05-08T23:59:35.777Z,14.78
